Time;durP1;ratioP1;P1;durP2;ratioP2;P2;SDS_P1;SDS_P2;PMS_P1;PMS_P2;Temp;Humidity;BMP_temperature;BMP_pressure;BME280_temperature;BME280_humidity;BME280_pressure;Samples;Min_cycle;Max_cycle;Signal;HPM_P1;HPM_P2
2023/06/29 00:00:06;;;;;;;11.90;7.20;;;;;;;18.52;67.17;101069.41;679792;28;1252;-78
2023/06/29 00:00:26;;;;;;;12.25;7.35;;;;;;;18.53;67.23;101068.53;681388;29;2205;-77
2023/06/29 00:00:47;;;;;;;14.00;7.37;;;;;;;18.49;67.26;101069.41;685506;28;1199;-77
2023/06/29 00:01:08;;;;;;;15.13;7.30;;;;;;;18.49;67.46;101072.03;685286;28;1115;-77
2023/06/29 00:01:29;;;;;;;14.20;7.65;;;;;;;18.45;67.44;101065.00;682642;28;1405;-77
2023/06/29 00:01:51;;;;;;;11.07;7.82;;;;;;;18.52;67.48;101076.44;679788;29;1252;-77
2023/06/29 00:02:12;;;;;;;10.77;7.80;;;;;;;18.45;67.48;101070.28;682571;29;1145;-77
2023/06/29 00:02:33;;;;;;;12.90;7.90;;;;;;;18.43;67.56;101066.78;683068;28;1591;-77
2023/06/29 00:02:54;;;;;;;14.07;7.70;;;;;;;18.47;67.62;101073.81;680041;29;1419;-78
2023/06/29 00:03:17;;;;;;;13.90;8.18;;;;;;;18.42;67.69;101067.63;677350;29;1182;-77
2023/06/29 00:03:41;;;;;;;12.20;8.02;;;;;;;18.43;67.77;101064.16;677249;29;1470;-77
2023/06/29 00:04:02;;;;;;;13.50;8.30;;;;;;;18.43;67.75;101066.78;677441;29;1348;-78
2023/06/29 00:04:25;;;;;;;13.55;8.20;;;;;;;18.41;67.85;101063.22;675113;29;884;-78
2023/06/29 00:04:46;;;;;;;13.00;8.07;;;;;;;18.41;67.85;101065.88;675298;29;1400;-77
2023/06/29 00:05:08;;;;;;;11.10;7.80;;;;;;;18.36;67.73;101061.50;676317;29;1129;-77
2023/06/29 00:05:28;;;;;;;11.80;8.20;;;;;;;18.40;67.81;101072.94;680159;29;1862;-77
2023/06/29 00:05:49;;;;;;;12.73;8.47;;;;;;;18.38;67.99;101065.88;681372;29;1858;-77
2023/06/29 00:06:10;;;;;;;13.60;9.02;;;;;;;18.41;68.00;101071.16;682782;29;1043;-77
2023/06/29 00:06:36;;;;;;;13.93;8.80;;;;;;;18.34;67.91;101065.88;680465;29;1339;-77
2023/06/29 00:06:56;;;;;;;14.90;8.70;;;;;;;18.36;68.23;101066.78;680169;29;2093;-77
2023/06/29 00:07:17;;;;;;;14.38;8.65;;;;;;;18.40;68.34;101074.69;680146;29;1093;-77
2023/06/29 00:07:38;;;;;;;13.73;8.60;;;;;;;18.37;68.34;101065.00;679024;29;1121;-77
2023/06/29 00:07:59;;;;;;;13.68;8.25;;;;;;;18.38;68.32;101063.25;678804;29;1082;-77
2023/06/29 00:08:20;;;;;;;13.68;7.80;;;;;;;18.41;68.31;101068.53;680218;29;1023;-77
2023/06/29 00:08:40;;;;;;;13.02;7.80;;;;;;;18.34;68.42;101063.22;682946;28;1380;-77
2023/06/29 00:09:02;;;;;;;13.40;8.13;;;;;;;18.36;68.53;101072.06;679858;29;1580;-77
2023/06/29 00:09:22;;;;;;;15.93;8.65;;;;;;;18.34;68.36;101071.16;682879;28;1315;-77
2023/06/29 00:09:43;;;;;;;16.42;9.13;;;;;;;18.33;68.45;101066.75;678515;29;1296;-77
2023/06/29 00:10:05;;;;;;;14.33;8.67;;;;;;;18.32;68.63;101070.28;673786;29;1060;-77
2023/06/29 00:10:26;;;;;;;11.35;7.90;;;;;;;18.30;68.58;101065.88;677486;29;2096;-77
2023/06/29 00:10:46;;;;;;;10.52;7.45;;;;;;;18.33;68.44;101069.41;678671;29;1349;-77
2023/06/29 00:11:08;;;;;;;10.05;7.63;;;;;;;18.28;68.62;101063.25;678986;29;1565;-77
2023/06/29 00:11:29;;;;;;;12.13;7.95;;;;;;;18.30;68.70;101064.13;677650;29;1087;-77
2023/06/29 00:11:50;;;;;;;13.02;7.90;;;;;;;18.29;68.82;101070.28;679043;29;1144;-77
2023/06/29 00:12:11;;;;;;;15.48;8.20;;;;;;;18.29;68.63;101070.28;677819;29;1151;-77
2023/06/29 00:12:31;;;;;;;13.35;7.80;;;;;;;18.26;68.60;101067.63;680817;29;1081;-77
2023/06/29 00:12:52;;;;;;;12.90;7.70;;;;;;;18.33;68.86;101079.97;679614;29;1258;-77
2023/06/29 00:13:13;;;;;;;12.40;7.30;;;;;;;18.31;68.72;101072.94;677382;29;1958;-77
2023/06/29 00:13:34;;;;;;;12.63;7.60;;;;;;;18.26;68.72;101066.75;677583;29;966;-77
2023/06/29 00:13:55;;;;;;;11.90;7.93;;;;;;;18.23;68.81;101067.63;679397;29;1450;-77
2023/06/29 00:14:16;;;;;;;14.65;8.48;;;;;;;18.26;68.92;101066.75;682824;29;1049;-77
2023/06/29 00:14:36;;;;;;;15.80;8.32;;;;;;;18.26;68.91;101067.63;682722;28;1013;-77
2023/06/29 00:14:57;;;;;;;15.68;8.25;;;;;;;18.22;68.93;101057.97;676941;29;1282;-77
2023/06/29 00:15:18;;;;;;;13.20;8.10;;;;;;;18.22;68.91;101057.97;677609;29;1090;-77
2023/06/29 00:15:38;;;;;;;12.20;7.83;;;;;;;18.20;68.91;101054.44;677167;29;1439;-77
2023/06/29 00:16:00;;;;;;;12.23;7.68;;;;;;;18.21;68.75;101059.69;679993;29;1602;-77
2023/06/29 00:16:22;;;;;;;13.20;8.10;;;;;;;18.26;68.70;101067.63;675009;29;1285;-77
2023/06/29 00:16:43;;;;;;;13.68;8.23;;;;;;;18.23;68.93;101070.28;680035;29;1481;-77
2023/06/29 00:17:04;;;;;;;13.68;8.30;;;;;;;18.22;68.71;101065.88;682263;29;1087;-77
2023/06/29 00:17:25;;;;;;;13.75;8.40;;;;;;;18.24;69.06;101061.47;682570;29;1986;-77
2023/06/29 00:17:47;;;;;;;15.83;8.90;;;;;;;18.28;69.27;101062.34;680693;28;1822;-77
2023/06/29 00:18:09;;;;;;;14.90;8.90;;;;;;;18.22;68.76;101060.59;677526;29;1284;-77
2023/06/29 00:18:30;;;;;;;13.80;8.68;;;;;;;18.22;68.84;101064.09;676804;29;1397;-77
2023/06/29 00:18:55;;;;;;;12.37;8.50;;;;;;;18.21;68.84;101057.06;676350;29;1093;-77
2023/06/29 00:19:15;;;;;;;15.13;8.73;;;;;;;18.26;68.83;101066.75;682309;28;1247;-77
2023/06/29 00:19:36;;;;;;;17.38;8.68;;;;;;;18.20;68.75;101055.31;682792;28;975;-77
2023/06/29 00:19:58;;;;;;;16.85;8.57;;;;;;;18.18;68.71;101050.91;683377;28;1321;-78
2023/06/29 00:20:18;;;;;;;15.73;8.30;;;;;;;18.23;69.10;101062.34;681131;29;1198;-77
2023/06/29 00:20:40;;;;;;;13.17;8.23;;;;;;;18.18;68.96;101050.91;683886;28;1193;-77
2023/06/29 00:21:03;;;;;;;12.95;8.20;;;;;;;18.19;69.00;101056.19;679895;29;1811;-77
2023/06/29 00:21:28;;;;;;;11.68;7.90;;;;;;;18.24;68.66;101063.25;681288;29;816;-77
2023/06/29 00:21:48;;;;;;;11.15;7.45;;;;;;;18.23;69.07;101059.72;678920;29;1111;-78
2023/06/29 00:22:09;;;;;;;13.27;7.50;;;;;;;18.20;68.98;101059.72;681146;28;1037;-77
2023/06/29 00:22:30;;;;;;;13.30;7.80;;;;;;;18.22;68.88;101057.97;683214;28;986;-77
2023/06/29 00:22:50;;;;;;;14.33;8.40;;;;;;;18.24;69.21;101066.75;684971;28;1333;-77
2023/06/29 00:23:11;;;;;;;11.95;8.50;;;;;;;18.21;68.98;101056.19;684335;28;1100;-77
2023/06/29 00:23:34;;;;;;;11.77;8.53;;;;;;;18.22;69.01;101064.09;680562;29;1175;-77
2023/06/29 00:23:54;;;;;;;12.45;8.50;;;;;;;18.23;68.96;101059.72;676508;29;1360;-77
2023/06/29 00:24:15;;;;;;;11.93;8.03;;;;;;;18.19;69.04;101052.69;674633;29;1809;-77
2023/06/29 00:24:42;;;;;;;12.98;8.20;;;;;;;18.21;69.01;101058.84;677628;29;973;-77
2023/06/29 00:25:03;;;;;;;13.32;8.63;;;;;;;18.24;69.10;101061.47;679447;29;1128;-77
2023/06/29 00:25:24;;;;;;;13.63;8.65;;;;;;;18.19;68.92;101053.53;679677;29;922;-77
2023/06/29 00:25:46;;;;;;;12.98;8.27;;;;;;;18.21;68.99;101056.19;679781;29;1091;-77
2023/06/29 00:26:07;;;;;;;12.00;7.72;;;;;;;18.25;68.96;101065.88;679919;29;1527;-78
2023/06/29 00:26:29;;;;;;;13.73;7.90;;;;;;;18.21;68.93;101051.78;676873;29;1886;-77
2023/06/29 00:26:49;;;;;;;13.80;7.93;;;;;;;18.26;68.75;101066.75;679922;29;1215;-77
2023/06/29 00:27:15;;;;;;;13.32;7.93;;;;;;;18.23;68.93;101057.06;682318;28;1437;-78
2023/06/29 00:27:36;;;;;;;11.98;7.57;;;;;;;18.23;68.95;101065.00;685515;28;1028;-77
2023/06/29 00:27:56;;;;;;;12.23;7.72;;;;;;;18.24;68.87;101066.75;682650;28;1254;-77
2023/06/29 00:28:17;;;;;;;13.67;8.57;;;;;;;18.22;68.81;101056.19;680172;29;1047;-77
2023/06/29 00:28:37;;;;;;;15.32;8.90;;;;;;;18.23;69.03;101059.72;677504;29;1051;-77
2023/06/29 00:28:58;;;;;;;16.17;8.67;;;;;;;18.20;69.13;101049.16;679823;29;1165;-77
2023/06/29 00:29:18;;;;;;;15.18;7.90;;;;;;;18.23;69.11;101054.44;677594;29;1158;-77
2023/06/29 00:29:42;;;;;;;13.65;7.78;;;;;;;18.24;69.06;101056.19;677385;29;1105;-77
2023/06/29 00:30:03;;;;;;;11.30;7.45;;;;;;;18.22;68.92;101053.53;677443;29;1324;-76
2023/06/29 00:30:25;;;;;;;12.65;8.05;;;;;;;18.25;68.89;101060.59;682661;28;1193;-75
2023/06/29 00:30:45;;;;;;;11.70;8.30;;;;;;;18.29;69.07;101065.00;680720;29;1640;-75
2023/06/29 00:31:06;;;;;;;13.02;9.00;;;;;;;18.31;68.88;101065.88;682627;29;1192;-75
2023/06/29 00:31:27;;;;;;;12.97;8.70;;;;;;;18.30;68.99;101065.88;677099;29;1456;-75
2023/06/29 00:31:47;;;;;;;13.17;8.40;;;;;;;18.25;68.93;101050.03;679659;29;1823;-75
2023/06/29 00:32:10;;;;;;;14.75;8.30;;;;;;;18.25;68.87;101057.94;677901;29;1409;-75
2023/06/29 00:32:31;;;;;;;14.23;8.38;;;;;;;18.31;68.73;101067.66;675439;29;2255;-75
2023/06/29 00:32:52;;;;;;;15.20;8.40;;;;;;;18.31;68.78;101057.09;676421;29;1190;-75
2023/06/29 00:33:13;;;;;;;13.75;8.68;;;;;;;18.29;68.81;101057.09;677368;29;1469;-75
2023/06/29 00:33:34;;;;;;;13.63;8.32;;;;;;;18.27;68.86;101055.31;679158;29;1598;-75
2023/06/29 00:33:55;;;;;;;13.90;8.47;;;;;;;18.28;68.85;101052.69;679397;29;1165;-75
2023/06/29 00:34:15;;;;;;;13.45;8.02;;;;;;;18.26;68.59;101054.41;679173;29;1129;-75
2023/06/29 00:34:36;;;;;;;12.80;8.30;;;;;;;18.33;68.68;101066.75;682854;29;958;-75
2023/06/29 00:34:57;;;;;;;13.30;8.02;;;;;;;18.30;68.64;101060.59;674433;29;1548;-75
2023/06/29 00:35:18;;;;;;;12.50;7.72;;;;;;;18.29;68.66;101053.53;674968;29;1043;-76
2023/06/29 00:35:39;;;;;;;15.67;8.07;;;;;;;18.31;68.67;101063.25;675275;29;1120;-76
2023/06/29 00:36:00;;;;;;;16.23;8.70;;;;;;;18.31;68.62;101063.25;678254;29;1816;-75
2023/06/29 00:36:21;;;;;;;17.08;9.10;;;;;;;18.29;68.36;101054.44;678160;28;1863;-76
2023/06/29 00:36:42;;;;;;;14.32;9.15;;;;;;;18.34;68.46;101057.94;680609;28;1108;-75
2023/06/29 00:37:03;;;;;;;14.13;9.10;;;;;;;18.33;68.45;101050.03;682168;29;1134;-76
2023/06/29 00:37:24;;;;;;;15.38;9.25;;;;;;;18.37;68.50;101059.72;685458;28;1965;-76
2023/06/29 00:37:45;;;;;;;15.13;8.75;;;;;;;18.35;68.67;101054.44;681991;28;1091;-76
2023/06/29 00:38:05;;;;;;;14.23;8.30;;;;;;;18.40;68.58;101061.47;674931;29;1399;-76
2023/06/29 00:38:26;;;;;;;13.30;8.05;;;;;;;18.40;68.42;101059.72;677477;29;1735;-77
2023/06/29 00:38:48;;;;;;;13.23;8.27;;;;;;;18.40;68.47;101058.84;677747;29;1304;-76
2023/06/29 00:39:11;;;;;;;13.48;8.95;;;;;;;18.42;68.18;101059.72;679583;29;1232;-76
2023/06/29 00:39:33;;;;;;;14.75;9.13;;;;;;;18.46;68.38;101066.78;677623;29;1027;-77
2023/06/29 00:39:53;;;;;;;14.70;9.07;;;;;;;18.40;68.35;101057.09;679365;29;1284;-76
2023/06/29 00:40:14;;;;;;;14.13;9.03;;;;;;;18.47;68.47;101061.50;678592;29;1430;-77
2023/06/29 00:40:35;;;;;;;11.88;8.93;;;;;;;18.41;68.27;101058.84;682782;29;1170;-77
2023/06/29 00:40:56;;;;;;;12.48;8.80;;;;;;;18.46;68.39;101069.41;675346;29;1241;-76
2023/06/29 00:41:16;;;;;;;12.67;8.30;;;;;;;18.43;68.47;101056.22;674910;29;967;-76
2023/06/29 00:41:39;;;;;;;14.73;8.55;;;;;;;18.42;68.42;101055.31;680117;29;1133;-76
2023/06/29 00:42:02;;;;;;;14.57;9.00;;;;;;;18.46;68.21;101062.38;683179;28;1190;-76
2023/06/29 00:42:22;;;;;;;16.60;9.50;;;;;;;18.47;68.17;101069.41;677491;29;1284;-76
2023/06/29 00:42:43;;;;;;;14.38;8.93;;;;;;;18.49;68.26;101061.47;677104;29;1615;-76
2023/06/29 00:43:05;;;;;;;12.82;8.80;;;;;;;18.48;68.21;101065.00;677366;29;1154;-77
2023/06/29 00:43:25;;;;;;;11.82;8.40;;;;;;;18.49;68.32;101061.47;674942;29;873;-76
2023/06/29 00:43:46;;;;;;;13.00;8.80;;;;;;;18.52;68.36;101069.41;677697;29;1467;-76
2023/06/29 00:44:08;;;;;;;13.35;8.60;;;;;;;18.52;68.10;101063.22;682530;29;1123;-76
2023/06/29 00:44:29;;;;;;;13.27;8.55;;;;;;;18.47;68.26;101052.66;678265;28;2020;-76
2023/06/29 00:44:50;;;;;;;13.00;8.03;;;;;;;18.55;68.21;101058.84;681569;28;1189;-76
2023/06/29 00:45:11;;;;;;;12.98;8.00;;;;;;;18.49;68.17;101056.19;686586;28;1246;-77
2023/06/29 00:45:31;;;;;;;12.77;8.13;;;;;;;18.51;68.22;101051.81;685531;28;974;-76
2023/06/29 00:45:52;;;;;;;12.90;8.03;;;;;;;18.53;68.03;101055.31;679868;29;1405;-76
2023/06/29 00:46:17;;;;;;;13.75;8.25;;;;;;;18.60;68.05;101067.66;672406;29;1273;-77
2023/06/29 00:46:38;;;;;;;14.90;8.00;;;;;;;18.57;68.12;101056.19;682807;29;985;-76
2023/06/29 00:46:59;;;;;;;16.95;8.45;;;;;;;18.55;68.06;101050.91;685134;28;1051;-76
2023/06/29 00:47:22;;;;;;;16.33;8.80;;;;;;;18.57;68.08;101051.78;685427;28;1190;-76
2023/06/29 00:47:42;;;;;;;14.48;8.50;;;;;;;18.55;68.04;101050.91;679936;29;1104;-76
2023/06/29 00:48:04;;;;;;;13.82;8.68;;;;;;;18.61;67.89;101066.75;677119;29;1246;-76
2023/06/29 00:48:28;;;;;;;13.57;8.10;;;;;;;18.58;67.99;101056.22;674733;29;1982;-76
2023/06/29 00:48:49;;;;;;;12.35;8.00;;;;;;;18.62;67.87;101057.94;677384;29;1147;-76
2023/06/29 00:49:10;;;;;;;13.18;7.90;;;;;;;18.62;67.84;101055.31;677086;29;1192;-77
2023/06/29 00:49:31;;;;;;;14.55;8.00;;;;;;;18.56;67.57;101052.66;677621;29;1033;-76
2023/06/29 00:49:52;;;;;;;14.95;7.80;;;;;;;18.60;68.04;101053.53;679448;29;1231;-76
2023/06/29 00:50:14;;;;;;;12.40;8.20;;;;;;;18.63;67.66;101056.19;681884;29;1017;-76
2023/06/29 00:50:35;;;;;;;12.18;8.63;;;;;;;18.61;67.70;101050.91;684800;28;1103;-76
2023/06/29 00:50:56;;;;;;;13.10;8.55;;;;;;;18.62;67.92;101057.94;681958;28;1205;-76
2023/06/29 00:51:17;;;;;;;12.82;8.10;;;;;;;18.59;67.95;101047.38;678015;29;1787;-76
2023/06/29 00:51:38;;;;;;;11.67;7.93;;;;;;;18.62;67.98;101052.66;682758;29;1241;-76
2023/06/29 00:52:08;;;;;;;13.52;8.57;;;;;;;18.68;68.13;101067.63;674800;29;1274;-76
2023/06/29 00:52:28;;;;;;;16.20;8.50;;;;;;;18.61;68.03;101050.91;677299;29;1936;-76
2023/06/29 00:52:49;;;;;;;16.90;8.30;;;;;;;18.62;68.12;101052.66;675181;29;1313;-77
2023/06/29 00:53:10;;;;;;;15.73;8.70;;;;;;;18.66;68.00;101057.94;677583;29;1241;-77
2023/06/29 00:53:31;;;;;;;13.40;9.13;;;;;;;18.68;68.05;101067.63;680014;28;1171;-76
2023/06/29 00:53:52;;;;;;;13.02;9.05;;;;;;;18.64;68.07;101056.19;684032;28;1223;-76
2023/06/29 00:54:15;;;;;;;12.60;8.30;;;;;;;18.67;68.08;101060.59;677422;29;1093;-77
2023/06/29 00:54:36;;;;;;;12.65;7.95;;;;;;;18.64;67.95;101048.25;677472;29;973;-77
2023/06/29 00:54:58;;;;;;;13.38;7.85;;;;;;;18.66;67.99;101055.28;677420;29;1116;-77
2023/06/29 00:55:18;;;;;;;14.90;8.32;;;;;;;18.62;67.87;101044.72;677531;29;1085;-77
2023/06/29 00:55:39;;;;;;;16.17;8.27;;;;;;;18.66;67.97;101057.94;677230;29;1314;-76
2023/06/29 00:56:02;;;;;;;16.17;8.27;;;;;;;18.69;68.13;101057.94;680109;29;1164;-76
2023/06/29 00:56:23;;;;;;;14.90;8.05;;;;;;;18.69;67.92;101050.88;678403;29;994;-77
2023/06/29 00:56:45;;;;;;;12.55;8.00;;;;;;;18.73;67.93;101059.69;677728;29;1795;-77
2023/06/29 00:57:08;;;;;;;11.43;7.97;;;;;;;18.72;67.96;101055.28;683059;28;1319;-77
2023/06/29 00:57:29;;;;;;;11.18;7.65;;;;;;;18.68;68.09;101050.91;685160;28;2005;-77
2023/06/29 00:57:50;;;;;;;12.85;8.15;;;;;;;18.70;67.81;101047.38;687348;28;1420;-77
2023/06/29 00:58:11;;;;;;;12.60;8.20;;;;;;;18.74;68.00;101058.81;686223;28;1664;-76
2023/06/29 00:58:31;;;;;;;12.80;7.93;;;;;;;18.72;67.89;101052.66;682741;29;884;-77
2023/06/29 00:58:52;;;;;;;12.00;7.55;;;;;;;18.76;67.71;101059.69;679962;29;1823;-78
2023/06/29 00:59:13;;;;;;;12.10;7.65;;;;;;;18.75;67.68;101053.53;679850;29;1248;-77
2023/06/29 00:59:35;;;;;;;12.43;8.05;;;;;;;18.76;67.64;101057.06;680058;29;1016;-77
2023/06/29 01:00:00;;;;;;;11.88;8.30;;;;;;;18.71;67.83;101048.25;676943;29;1591;-77
2023/06/29 01:00:22;;;;;;;11.93;8.18;;;;;;;18.69;67.84;101042.94;678596;29;1081;-77
2023/06/29 01:00:43;;;;;;;12.05;8.30;;;;;;;18.71;67.76;101051.78;681262;29;1793;-77
2023/06/29 01:01:04;;;;;;;12.15;8.35;;;;;;;18.74;67.65;101051.75;678803;29;1842;-77
2023/06/29 01:01:27;;;;;;;12.50;8.25;;;;;;;18.72;67.79;101047.34;677607;29;1108;-77
2023/06/29 01:01:48;;;;;;;13.95;8.25;;;;;;;18.76;67.77;101054.41;676304;29;1251;-77
2023/06/29 01:02:09;;;;;;;13.50;8.40;;;;;;;18.73;67.83;101046.47;677826;29;1917;-77
2023/06/29 01:02:35;;;;;;;13.13;8.40;;;;;;;18.74;67.66;101051.75;675084;29;1222;-77
2023/06/29 01:02:56;;;;;;;12.70;8.40;;;;;;;18.74;67.74;101045.59;677122;29;1135;-77
2023/06/29 01:03:16;;;;;;;14.50;8.80;;;;;;;18.84;67.70;101052.63;674637;29;1492;-77
2023/06/29 01:03:40;;;;;;;15.40;9.07;;;;;;;18.86;67.47;101049.97;682788;28;1181;-77
2023/06/29 01:04:01;;;;;;;13.38;8.35;;;;;;;18.81;67.47;101042.03;682729;29;1118;-77
2023/06/29 01:04:27;;;;;;;13.47;8.00;;;;;;;18.85;67.55;101041.16;680190;28;1312;-76
2023/06/29 01:04:48;;;;;;;12.00;7.90;;;;;;;18.87;67.39;101044.69;683934;28;1072;-77
2023/06/29 01:05:14;;;;;;;10.38;7.45;;;;;;;18.87;67.31;101042.03;682362;29;1819;-77
2023/06/29 01:05:34;;;;;;;12.13;7.40;;;;;;;18.90;67.41;101044.69;682643;29;1466;-77
2023/06/29 01:06:01;;;;;;;14.50;7.88;;;;;;;18.95;67.34;101049.97;682925;28;1264;-77
2023/06/29 01:06:31;;;;;;;18.13;8.40;;;;;;;18.92;67.41;101047.31;681687;29;1484;-76
2023/06/29 01:07:11;;;;;;;16.95;8.30;;;;;;;18.97;67.19;101048.19;682492;28;2178;-77
2023/06/29 01:07:44;;;;;;;12.15;7.65;;;;;;;18.94;67.20;101048.22;684092;28;1616;-77
2023/06/29 01:08:11;;;;;;;11.27;7.85;;;;;;;18.93;67.23;101045.56;677298;29;1273;-77
2023/06/29 01:08:37;;;;;;;13.40;8.40;;;;;;;18.91;67.26;101043.81;679782;29;1691;-77
2023/06/29 01:09:05;;;;;;;15.27;8.70;;;;;;;18.93;67.26;101040.28;682544;28;1047;-77
2023/06/29 01:09:28;;;;;;;14.10;8.75;;;;;;;18.92;67.35;101044.66;682553;28;1359;-77
2023/06/29 01:09:50;;;;;;;12.95;7.85;;;;;;;18.88;67.12;101033.22;682849;28;1072;-77
2023/06/29 01:10:13;;;;;;;12.73;7.65;;;;;;;18.94;67.22;101040.28;682669;28;1085;-77
2023/06/29 01:10:35;;;;;;;13.30;7.68;;;;;;;18.93;67.11;101040.28;682622;29;1832;-77
2023/06/29 01:10:57;;;;;;;14.00;7.90;;;;;;;18.95;67.19;101049.97;686977;28;1138;-77
2023/06/29 01:11:20;;;;;;;10.35;7.20;;;;;;;18.90;67.22;101044.69;682721;29;1279;-77
2023/06/29 01:11:41;;;;;;;11.38;7.40;;;;;;;18.90;67.16;101046.44;679807;29;1360;-77
2023/06/29 01:12:03;;;;;;;11.48;7.68;;;;;;;18.89;67.39;101050.84;674730;29;1123;-78
2023/06/29 01:12:25;;;;;;;13.65;8.52;;;;;;;18.88;67.12;101049.09;675051;29;928;-77
2023/06/29 01:12:47;;;;;;;13.93;8.77;;;;;;;18.92;67.06;101047.31;677361;29;1150;-76
2023/06/29 01:13:08;;;;;;;13.88;8.40;;;;;;;18.87;67.26;101047.31;679924;29;1117;-77
2023/06/29 01:13:30;;;;;;;13.80;8.30;;;;;;;18.82;67.08;101041.19;677455;29;1187;-77
2023/06/29 01:13:53;;;;;;;12.73;8.20;;;;;;;18.88;67.14;101051.72;677893;29;1523;-77
2023/06/29 01:14:15;;;;;;;12.10;8.15;;;;;;;18.81;67.13;101047.34;679971;29;1113;-77
2023/06/29 01:14:39;;;;;;;11.80;7.90;;;;;;;18.79;66.95;101038.53;682678;29;1377;-77
2023/06/29 01:15:01;;;;;;;10.75;7.53;;;;;;;18.77;67.28;101040.31;679642;29;2052;-77
2023/06/29 01:15:23;;;;;;;10.43;7.40;;;;;;;18.77;67.13;101040.31;677469;29;1273;-76
2023/06/29 01:15:47;;;;;;;10.63;7.55;;;;;;;18.72;67.02;101031.50;680820;29;1293;-77
2023/06/29 01:16:08;;;;;;;12.52;7.80;;;;;;;18.74;67.20;101035.91;686174;28;1129;-77
2023/06/29 01:16:32;;;;;;;13.45;7.78;;;;;;;18.70;67.15;101034.16;680323;29;1204;-77
2023/06/29 01:16:55;;;;;;;11.73;7.57;;;;;;;18.69;67.14;101032.38;681697;29;1215;-77
2023/06/29 01:17:22;;;;;;;11.50;7.82;;;;;;;18.73;67.30;101043.81;679989;29;1002;-77
2023/06/29 01:17:45;;;;;;;11.18;7.43;;;;;;;18.69;67.32;101036.81;680042;29;1211;-76
2023/06/29 01:18:07;;;;;;;11.73;7.80;;;;;;;18.74;67.32;101043.84;682223;29;1713;-76
2023/06/29 01:18:30;;;;;;;11.52;7.70;;;;;;;18.67;67.23;101038.56;687984;28;1236;-77
2023/06/29 01:18:52;;;;;;;12.98;7.97;;;;;;;18.69;67.33;101045.59;686320;28;1203;-77
2023/06/29 01:19:19;;;;;;;13.80;8.15;;;;;;;18.64;67.70;101035.03;681950;28;1576;-77
2023/06/29 01:19:43;;;;;;;13.23;8.10;;;;;;;18.66;67.40;101042.06;684848;28;1240;-77
2023/06/29 01:20:10;;;;;;;12.65;8.10;;;;;;;18.58;67.63;101035.06;680434;29;1021;-77
2023/06/29 01:20:32;;;;;;;12.55;8.20;;;;;;;18.53;67.84;101031.53;683019;28;2306;-77
2023/06/29 01:20:53;;;;;;;14.88;8.48;;;;;;;18.53;67.84;101036.81;681299;29;1210;-76
2023/06/29 01:21:16;;;;;;;14.90;8.40;;;;;;;18.54;67.69;101035.94;677829;29;1343;-77
2023/06/29 01:21:47;;;;;;;14.00;8.20;;;;;;;18.52;67.82;101036.81;675574;29;1280;-77
2023/06/29 01:22:14;;;;;;;14.68;8.63;;;;;;;18.48;67.88;101044.75;677278;29;1042;-77
2023/06/29 01:22:44;;;;;;;14.23;8.50;;;;;;;18.44;67.89;101036.84;677851;29;1284;-77
2023/06/29 01:23:14;;;;;;;11.23;7.70;;;;;;;18.43;68.06;101040.38;679406;29;1313;-77
2023/06/29 01:23:38;;;;;;;10.65;7.13;;;;;;;18.45;68.21;101052.66;683702;28;1382;-76
2023/06/29 01:24:00;;;;;;;11.82;7.43;;;;;;;18.40;68.05;101035.06;688771;28;1479;-77
2023/06/29 01:24:25;;;;;;;10.98;7.50;;;;;;;18.35;68.07;101029.78;685761;28;1318;-77
2023/06/29 01:24:47;;;;;;;13.02;7.90;;;;;;;18.41;67.93;101036.81;678905;28;1546;-77
2023/06/29 01:25:08;;;;;;;12.70;7.80;;;;;;;18.38;68.10;101040.34;683160;28;1042;-77
2023/06/29 01:25:29;;;;;;;16.75;7.80;;;;;;;18.33;68.11;101031.53;680604;29;939;-77
2023/06/29 01:25:53;;;;;;;15.07;7.60;;;;;;;18.30;68.25;101035.06;682404;29;1207;-77
2023/06/29 01:26:15;;;;;;;15.35;7.70;;;;;;;18.38;68.29;101036.81;683139;29;1196;-77
2023/06/29 01:26:38;;;;;;;11.15;7.70;;;;;;;18.32;68.42;101035.94;683165;29;1154;-77
2023/06/29 01:26:59;;;;;;;11.88;8.10;;;;;;;18.31;68.29;101039.47;682518;28;1271;-76
2023/06/29 01:27:21;;;;;;;11.23;7.88;;;;;;;18.28;68.36;101025.38;680571;29;1203;-77
2023/06/29 01:27:43;;;;;;;11.75;7.68;;;;;;;18.26;68.50;101019.22;680161;29;1152;-76
2023/06/29 01:28:07;;;;;;;13.05;7.82;;;;;;;18.27;68.56;101028.91;680134;29;1081;-76
2023/06/29 01:28:31;;;;;;;14.57;8.30;;;;;;;18.27;68.38;101028.91;680655;29;1073;-77
2023/06/29 01:28:52;;;;;;;14.88;8.45;;;;;;;18.25;68.63;101030.66;679850;29;1363;-77
2023/06/29 01:29:13;;;;;;;15.32;8.32;;;;;;;18.27;68.59;101032.44;682690;29;1932;-77
2023/06/29 01:29:34;;;;;;;15.38;8.23;;;;;;;18.23;68.50;101030.66;680509;29;1070;-76
2023/06/29 01:30:00;;;;;;;14.52;8.00;;;;;;;18.21;68.42;101022.72;678379;29;1259;-77
2023/06/29 01:30:23;;;;;;;12.98;8.40;;;;;;;18.22;68.63;101027.13;675395;29;1464;-77
2023/06/29 01:30:50;;;;;;;13.05;8.68;;;;;;;18.19;68.58;101031.56;679261;29;1256;-77
2023/06/29 01:31:12;;;;;;;13.55;8.50;;;;;;;18.19;68.76;101021.84;682812;28;2090;-77
2023/06/29 01:31:32;;;;;;;14.37;8.30;;;;;;;18.18;68.60;101025.38;681661;28;1351;-76
2023/06/29 01:31:59;;;;;;;13.63;8.60;;;;;;;18.19;68.68;101028.91;688378;28;1273;-76
2023/06/29 01:32:33;;;;;;;14.30;8.77;;;;;;;18.20;68.70;101028.03;685469;28;1664;-77
2023/06/29 01:32:54;;;;;;;14.15;8.40;;;;;;;18.21;68.70;101024.50;680866;29;1722;-76
2023/06/29 01:33:21;;;;;;;14.43;8.50;;;;;;;18.13;68.72;101021.81;683247;28;1160;-76
2023/06/29 01:33:42;;;;;;;11.80;8.18;;;;;;;18.24;68.79;101028.91;682030;29;1199;-77
2023/06/29 01:34:05;;;;;;;11.35;7.72;;;;;;;18.16;68.97;101015.69;680959;29;1147;-77
2023/06/29 01:34:28;;;;;;;12.55;7.97;;;;;;;18.18;68.84;101024.47;678716;29;1523;-77
2023/06/29 01:34:49;;;;;;;11.63;7.85;;;;;;;18.21;68.93;101024.50;680415;29;1155;-77
2023/06/29 01:35:10;;;;;;;11.00;7.82;;;;;;;18.17;68.91;101026.25;680416;29;1051;-77
2023/06/29 01:35:31;;;;;;;11.75;7.80;;;;;;;18.18;68.97;101021.84;681613;29;1402;-77
2023/06/29 01:36:00;;;;;;;12.50;8.07;;;;;;;18.16;69.11;101020.97;680462;29;1263;-77
2023/06/29 01:36:26;;;;;;;13.57;8.07;;;;;;;18.25;68.99;101034.16;682362;29;1223;-76
2023/06/29 01:36:50;;;;;;;13.15;7.88;;;;;;;18.21;68.98;101024.50;685265;28;1513;-77
2023/06/29 01:37:28;;;;;;;13.73;8.70;;;;;;;18.21;68.95;101029.78;682959;29;2020;-76
2023/06/29 01:38:02;;;;;;;13.50;8.75;;;;;;;18.22;68.86;101031.53;679771;29;1395;-77
2023/06/29 01:38:37;;;;;;;12.10;8.20;;;;;;;18.24;68.83;101031.56;680595;29;773;-77
2023/06/29 01:39:19;;;;;;;11.48;8.13;;;;;;;18.24;69.03;101031.56;683211;28;1099;-77
2023/06/29 01:39:49;;;;;;;11.90;8.40;;;;;;;18.32;68.65;101037.72;685913;28;981;-77
2023/06/29 01:40:12;;;;;;;12.85;8.95;;;;;;;18.27;68.83;101024.50;683191;28;1042;-77
2023/06/29 01:40:36;;;;;;;15.13;9.10;;;;;;;18.27;68.85;101029.78;685191;28;1228;-76
2023/06/29 01:40:59;;;;;;;14.68;8.90;;;;;;;18.34;68.62;101034.16;682295;29;1025;-77
2023/06/29 01:41:26;;;;;;;14.68;8.60;;;;;;;18.33;69.00;101027.13;682853;29;808;-77
2023/06/29 01:41:48;;;;;;;15.95;8.48;;;;;;;18.34;69.07;101025.38;680395;29;1541;-76
2023/06/29 01:42:11;;;;;;;14.90;8.80;;;;;;;18.35;69.13;101027.13;683447;28;1441;-77
2023/06/29 01:42:32;;;;;;;15.38;8.80;;;;;;;18.38;69.01;101027.13;685745;28;1265;-77
2023/06/29 01:42:56;;;;;;;14.63;8.63;;;;;;;18.39;69.05;101028.91;683049;28;1281;-77
2023/06/29 01:43:18;;;;;;;14.60;8.82;;;;;;;18.41;68.83;101023.59;675173;29;1724;-76
2023/06/29 01:43:39;;;;;;;13.40;8.90;;;;;;;18.43;68.57;101025.38;680609;29;1171;-76
2023/06/29 01:44:05;;;;;;;13.05;8.75;;;;;;;18.48;68.75;101033.28;679574;29;1022;-76
2023/06/29 01:44:25;;;;;;;12.88;8.20;;;;;;;18.36;68.79;101027.16;680135;29;1105;-76
2023/06/29 01:44:49;;;;;;;11.82;7.85;;;;;;;18.41;68.94;101026.25;682812;28;2022;-77
2023/06/29 01:45:12;;;;;;;12.40;8.40;;;;;;;18.42;68.53;101025.34;680010;29;1787;-76
2023/06/29 01:45:34;;;;;;;12.77;8.50;;;;;;;18.47;68.59;101020.97;672716;29;1476;-77
2023/06/29 01:45:57;;;;;;;13.45;8.70;;;;;;;18.45;68.56;101020.94;676570;29;1139;-77